Time;durP1;ratioP1;P1;durP2;ratioP2;P2;SDS_P1;SDS_P2;PMS_P1;PMS_P2;Temp;Humidity;BMP_temperature;BMP_pressure;BME280_temperature;BME280_humidity;BME280_pressure;Samples;Min_cycle;Max_cycle;Signal;HPM_P1;HPM_P2
2022/11/03 00:01:37;;;;;;;6.18;2.58;;;11.60;67.50;;;;;;6278626;22;20037;-73
2022/11/03 00:04:04;;;;;;;6.28;2.70;;;11.50;67.60;;;;;;6306519;22;20304;-73
2022/11/03 00:06:30;;;;;;;5.68;2.83;;;11.50;67.70;;;;;;6305498;22;20000;-73
2022/11/03 00:09:00;;;;;;;6.55;2.85;;;11.50;67.80;;;;;;6278986;22;19999;-73
2022/11/03 00:11:26;;;;;;;4.25;2.22;;;11.50;68.10;;;;;;6306505;22;20003;-73
2022/11/03 00:13:52;;;;;;;8.13;2.92;;;11.50;68.00;;;;;;6306619;22;20005;-73
2022/11/03 00:16:18;;;;;;;7.30;2.45;;;11.40;68.10;;;;;;6278440;22;20011;-73
2022/11/03 00:18:43;;;;;;;6.95;2.20;;;11.40;68.10;;;;;;6306206;22;20003;-73
2022/11/03 00:21:12;;;;;;;3.22;2.10;;;11.50;68.10;;;;;;6279383;22;20410;-73
2022/11/03 00:23:42;;;;;;;5.00;1.90;;;11.40;68.00;;;;;;6306503;22;20359;-73
2022/11/03 00:26:17;;;;;;;3.53;1.73;;;11.40;68.10;;;;;;6306490;22;19999;-73
2022/11/03 00:28:44;;;;;;;7.65;2.42;;;11.40;68.10;;;;;;6279298;22;20007;-73
2022/11/03 00:31:13;;;;;;;4.05;2.10;;;11.40;68.00;;;;;;6306224;22;20038;-73
2022/11/03 00:33:39;;;;;;;4.38;1.83;;;11.40;68.10;;;;;;6306101;22;20023;-73
2022/11/03 00:36:07;;;;;;;3.75;2.08;;;11.40;68.00;;;;;;6306439;22;20045;-73
2022/11/03 00:38:33;;;;;;;3.97;1.83;;;11.40;68.00;;;;;;6306176;22;20027;-73
2022/11/03 00:41:01;;;;;;;5.57;1.60;;;11.30;67.90;;;;;;6306215;22;20348;-73
2022/11/03 00:43:28;;;;;;;7.03;2.20;;;11.30;67.90;;;;;;6306258;22;20003;-73
2022/11/03 00:45:55;;;;;;;8.30;2.42;;;11.30;68.00;;;;;;6306377;22;20342;-73
2022/11/03 00:48:36;;;;;;;11.15;2.55;;;11.30;68.00;;;;;;6306262;22;20033;-73
2022/11/03 00:51:07;;;;;;;5.13;2.08;;;11.30;68.00;;;;;;6305926;22;19999;-73
2022/11/03 00:53:35;;;;;;;4.38;2.10;;;11.30;67.90;;;;;;6278846;22;20080;-73
2022/11/03 00:56:01;;;;;;;6.82;2.55;;;11.30;67.90;;;;;;6306063;22;20003;-73
2022/11/03 00:58:27;;;;;;;3.90;2.00;;;11.20;68.00;;;;;;6306063;22;20003;-73
2022/11/03 01:01:12;;;;;;;4.53;2.10;;;11.20;68.20;;;;;;6306019;22;20031;-73
2022/11/03 01:03:40;;;;;;;4.05;1.77;;;11.20;68.40;;;;;;6279086;22;20419;-73
2022/11/03 01:08:52;;;;;;;6.22;2.60;;;11.20;68.50;;;;;;6305792;22;20464;-73
2022/11/03 01:14:07;;;;;;;5.35;2.45;;;11.20;68.70;;;;;;6306129;22;20019;-73
2022/11/03 01:16:32;;;;;;;6.45;2.63;;;11.20;68.70;;;;;;6305706;22;20015;-73
2022/11/03 01:18:59;;;;;;;5.82;2.78;;;11.20;68.80;;;;;;6306062;22;20007;-73
2022/11/03 01:21:25;;;;;;;4.45;2.22;;;11.20;68.90;;;;;;6305830;22;20053;-73
2022/11/03 01:23:50;;;;;;;3.47;2.08;;;11.20;69.00;;;;;;6305609;22;20002;-73
2022/11/03 01:26:17;;;;;;;3.60;2.08;;;11.20;69.00;;;;;;6306189;22;19995;-73
2022/11/03 01:28:45;;;;;;;8.48;2.78;;;11.20;68.90;;;;;;6305758;22;20026;-73
2022/11/03 01:31:16;;;;;;;5.93;2.28;;;11.20;68.90;;;;;;6305863;22;20017;-73
2022/11/03 01:33:44;;;;;;;3.30;1.70;;;11.20;69.00;;;;;;6305909;22;20007;-73
2022/11/03 01:36:10;;;;;;;5.63;2.33;;;11.20;68.90;;;;;;6306136;22;20074;-73
2022/11/03 01:38:37;;;;;;;4.70;2.20;;;11.20;69.00;;;;;;6305862;22;20545;-73
2022/11/03 01:41:07;;;;;;;3.50;1.15;;;11.10;68.90;;;;;;6305977;22;20067;-73
2022/11/03 01:43:33;;;;;;;5.22;1.63;;;11.10;68.80;;;;;;6305996;22;20003;-73
2022/11/03 01:46:21;;;;;;;5.53;1.70;;;11.10;68.70;;;;;;6305961;22;20426;-74
2022/11/03 01:49:13;;;;;;;2.38;1.50;;;11.10;68.80;;;;;;6305912;22;20003;-73
2022/11/03 01:51:41;;;;;;;1.75;1.08;;;11.10;68.80;;;;;;6305923;22;20082;-73
2022/11/03 01:54:11;;;;;;;5.85;1.38;;;11.10;68.70;;;;;;6278191;22;20430;-73
2022/11/03 01:56:40;;;;;;;6.97;1.50;;;11.10;68.60;;;;;;6306017;22;20034;-73
2022/11/03 01:59:07;;;;;;;1.73;1.23;;;11.10;68.70;;;;;;6306023;22;20010;-73
2022/11/03 02:01:33;;;;;;;2.17;1.38;;;11.10;68.80;;;;;;6278606;22;20049;-73
2022/11/03 02:04:06;;;;;;;4.30;1.38;;;11.10;68.90;;;;;;6305946;22;20326;-73
2022/11/03 02:06:32;;;;;;;3.58;1.10;;;11.10;68.90;;;;;;6306059;22;20006;-73
2022/11/03 02:09:08;;;;;;;2.03;1.10;;;11.00;68.80;;;;;;6305883;22;20003;-73
2022/11/03 02:14:18;;;;;;;4.95;1.50;;;11.00;68.80;;;;;;6305946;22;20438;-73
2022/11/03 02:16:54;;;;;;;1.92;1.05;;;11.00;68.70;;;;;;6305666;22;20058;-73
2022/11/03 02:19:44;;;;;;;3.58;1.30;;;11.00;68.70;;;;;;6306008;22;20453;-73
2022/11/03 02:22:40;;;;;;;2.42;1.25;;;11.00;68.80;;;;;;6305822;22;20023;-73
2022/11/03 02:25:15;;;;;;;2.95;0.95;;;11.00;68.80;;;;;;6278200;22;19999;-73
2022/11/03 02:27:41;;;;;;;4.53;1.20;;;11.00;68.60;;;;;;6278620;22;20049;-73
2022/11/03 02:30:07;;;;;;;5.22;1.50;;;11.00;68.60;;;;;;6305769;22;20004;-73
2022/11/03 02:32:56;;;;;;;5.30;1.30;;;11.00;68.60;;;;;;6305942;22;20379;-73
2022/11/03 02:35:36;;;;;;;3.47;1.23;;;11.00;68.80;;;;;;6278433;22;20041;-73
2022/11/03 02:38:04;;;;;;;5.18;1.45;;;11.00;68.90;;;;;;6305749;22;20070;-73
2022/11/03 02:40:38;;;;;;;7.97;1.50;;;11.00;68.80;;;;;;6306611;22;20044;-73
2022/11/03 02:43:04;;;;;;;3.90;1.35;;;11.00;68.80;;;;;;6308192;22;20434;-73
2022/11/03 02:45:31;;;;;;;3.28;1.40;;;11.00;68.80;;;;;;6308108;22;19999;-73
2022/11/03 02:48:01;;;;;;;3.90;1.27;;;10.90;68.70;;;;;;6280487;22;20010;-73
2022/11/03 02:50:29;;;;;;;2.83;1.17;;;10.90;68.80;;;;;;6307887;22;20003;-73
2022/11/03 02:52:56;;;;;;;3.42;1.05;;;11.00;68.90;;;;;;6307628;22;20030;-73
2022/11/03 02:55:44;;;;;;;2.85;1.20;;;10.90;68.80;;;;;;6307908;22;20007;-73
2022/11/03 02:58:24;;;;;;;3.47;1.45;;;10.90;68.60;;;;;;6280463;22;20421;-73
2022/11/03 03:01:13;;;;;;;2.78;1.35;;;10.90;68.60;;;;;;6280520;22;20374;-73
2022/11/03 03:03:48;;;;;;;7.18;1.50;;;10.90;68.60;;;;;;6307608;22;20437;-73
2022/11/03 03:06:22;;;;;;;6.13;1.35;;;10.90;68.60;;;;;;6307845;22;20003;-73
2022/11/03 03:08:51;;;;;;;;;;;10.90;68.70;;;;;;6308187;22;20429;-73
2022/11/03 03:11:35;;;;;;;4.22;1.30;;;10.90;68.60;;;;;;6307612;22;19905;-73
2022/11/03 03:14:12;;;;;;;1.92;1.33;;;10.90;68.50;;;;;;6307671;22;19999;-73
2022/11/03 03:16:52;;;;;;;3.65;1.65;;;10.90;68.60;;;;;;6279908;22;20120;-73
2022/11/03 03:19:39;;;;;;;4.55;1.70;;;10.90;68.70;;;;;;6307447;22;20060;-73
2022/11/03 03:22:15;;;;;;;3.00;1.70;;;10.90;68.70;;;;;;6307397;22;20003;-73
2022/11/03 03:25:00;;;;;;;2.97;1.80;;;10.90;68.70;;;;;;6307649;22;19995;-73
2022/11/03 03:27:28;;;;;;;2.03;1.50;;;10.90;68.80;;;;;;6280181;22;20007;-73
2022/11/03 03:30:02;;;;;;;3.60;1.52;;;10.90;68.70;;;;;;6307511;22;20192;-73
2022/11/03 03:32:30;;;;;;;;;;;10.90;68.80;;;;;;6280597;22;20003;-73
2022/11/03 03:34:59;;;;;;;2.83;1.20;;;10.90;68.70;;;;;;6307016;22;19978;-73
2022/11/03 03:37:27;;;;;;;2.92;1.25;;;10.90;68.60;;;;;;6307208;22;20319;-73
2022/11/03 03:39:56;;;;;;;4.97;1.67;;;10.90;68.70;;;;;;6307470;22;20003;-73
2022/11/03 03:42:25;;;;;;;7.00;1.65;;;10.90;68.70;;;;;;6307354;22;20000;-73
2022/11/03 03:44:53;;;;;;;4.05;1.60;;;10.90;68.80;;;;;;6279998;22;20330;-73
2022/11/03 03:47:25;;;;;;;2.42;1.05;;;10.90;68.70;;;;;;6307210;22;20422;-73
2022/11/03 03:49:51;;;;;;;2.17;1.00;;;11.00;68.80;;;;;;6307448;22;20011;-73
2022/11/03 03:52:17;;;;;;;9.52;2.00;;;10.90;68.70;;;;;;6307044;22;19999;-73
2022/11/03 03:54:43;;;;;;;3.35;1.35;;;11.00;68.80;;;;;;6307444;22;20010;-73
2022/11/03 03:57:16;;;;;;;6.32;1.58;;;11.00;68.70;;;;;;6307180;22;20003;-73
2022/11/03 03:59:43;;;;;;;3.92;1.50;;;11.00;68.80;;;;;;6307413;22;19995;-73
2022/11/03 04:02:10;;;;;;;2.65;1.10;;;11.00;68.70;;;;;;6279817;22;20003;-73
2022/11/03 04:04:35;;;;;;;5.60;1.60;;;11.00;68.60;;;;;;6307238;22;20365;-73
2022/11/03 04:09:45;;;;;;;3.33;1.60;;;11.00;68.60;;;;;;6307665;22;20010;-73
2022/11/03 04:23:12;;;;;;;3.90;1.40;;;11.10;68.30;;;;;;6306959;22;20086;-73
2022/11/03 04:25:38;;;;;;;2.15;1.27;;;11.10;68.40;;;;;;6307207;22;19999;-73
2022/11/03 04:28:11;;;;;;;5.25;1.50;;;11.10;68.40;;;;;;6308170;22;20003;-73
2022/11/03 04:30:37;;;;;;;4.45;1.75;;;11.00;68.40;;;;;;6308138;22;20003;-73
2022/11/03 04:33:11;;;;;;;3.88;1.52;;;11.10;68.50;;;;;;6308081;22;20440;-74
2022/11/03 04:35:36;;;;;;;;;;;11.00;68.40;;;;;;6281194;22;20007;-73
2022/11/03 04:38:24;;;;;;;3.42;1.50;;;11.10;68.40;;;;;;6307969;22;20211;-73
2022/11/03 04:40:54;;;;;;;2.97;1.52;;;11.10;68.20;;;;;;6308029;22;20422;-73
2022/11/03 04:43:23;;;;;;;2.15;1.38;;;11.10;68.20;;;;;;6308396;22;20041;-73
2022/11/03 04:45:49;;;;;;;3.60;1.55;;;11.10;68.20;;;;;;6280612;22;20003;-73
2022/11/03 04:48:22;;;;;;;3.08;1.38;;;11.10;68.30;;;;;;6280640;22;20014;-73
2022/11/03 04:50:50;;;;;;;6.75;1.77;;;11.10;68.30;;;;;;6307913;22;20030;-73
2022/11/03 04:53:18;;;;;;;3.03;1.70;;;11.10;68.30;;;;;;6307687;22;19999;-72
2022/11/03 04:55:45;;;;;;;4.13;1.65;;;11.10;68.30;;;;;;6307863;22;20072;-73
2022/11/03 04:58:25;;;;;;;3.63;1.60;;;11.10;68.30;;;;;;6307797;22;20002;-73
2022/11/03 05:00:59;;;;;;;2.28;1.55;;;11.10;68.30;;;;;;6307900;22;20488;-73
2022/11/03 05:03:36;;;;;;;4.10;1.50;;;11.00;68.30;;;;;;6307580;22;20029;-72
2022/11/03 05:06:28;;;;;;;4.00;1.65;;;11.00;68.40;;;;;;6307778;22;20003;-72
2022/11/03 05:09:00;;;;;;;4.32;1.63;;;11.10;68.50;;;;;;6273997;22;20458;-72
2022/11/03 05:11:30;;;;;;;6.78;2.08;;;11.10;68.50;;;;;;6307686;22;20430;-72
2022/11/03 05:14:14;;;;;;;4.85;1.40;;;11.10;68.50;;;;;;6280245;22;20007;-73
2022/11/03 05:16:41;;;;;;;2.85;1.77;;;11.10;68.50;;;;;;6307464;22;20019;-73
2022/11/03 05:19:34;;;;;;;4.90;1.88;;;11.10;68.50;;;;;;6307265;22;20330;-73
2022/11/03 05:22:01;;;;;;;5.53;1.88;;;11.10;68.50;;;;;;6301888;22;20003;-73
2022/11/03 05:24:29;;;;;;;5.20;1.98;;;11.10;68.40;;;;;;6279984;22;20023;-73
2022/11/03 05:26:57;;;;;;;6.82;2.15;;;11.10;68.30;;;;;;6280077;22;20004;-73
2022/11/03 05:29:35;;;;;;;5.25;2.15;;;11.10;68.30;;;;;;6307577;22;20086;-72
2022/11/03 05:32:02;;;;;;;5.22;2.15;;;11.10;68.40;;;;;;6307438;22;19999;-73
2022/11/03 05:34:36;;;;;;;7.63;2.35;;;11.10;68.40;;;;;;6307402;22;20430;-73
2022/11/03 05:37:05;;;;;;;5.35;2.20;;;11.10;68.40;;;;;;6307253;22;20003;-73
2022/11/03 05:39:39;;;;;;;3.92;1.90;;;11.10;68.40;;;;;;6307354;22;19999;-73
2022/11/03 05:42:29;;;;;;;5.75;1.92;;;11.10;68.40;;;;;;6307468;22;19999;-72
2022/11/03 05:44:56;;;;;;;7.57;2.55;;;11.10;68.40;;;;;;6307428;22;20121;-73
2022/11/03 05:47:40;;;;;;;5.88;2.30;;;11.10;68.30;;;;;;6279943;22;20503;-72
2022/11/03 05:50:18;;;;;;;;;;;11.00;68.30;;;;;;6280386;22;20010;-72
2022/11/03 05:52:46;;;;;;;4.53;2.55;;;11.10;68.30;;;;;;6307239;22;19927;-72
2022/11/03 05:55:32;;;;;;;3.05;2.38;;;11.10;68.20;;;;;;6307241;22;20034;-73
2022/11/03 05:58:10;;;;;;;2.72;2.03;;;11.10;68.40;;;;;;6306906;22;20070;-72
2022/11/03 06:00:40;;;;;;;3.72;2.20;;;11.10;68.50;;;;;;6306969;22;20430;-73
2022/11/03 06:03:06;;;;;;;5.10;2.60;;;11.00;68.50;;;;;;6306836;22;20022;-72
2022/11/03 06:05:33;;;;;;;3.35;1.90;;;11.00;68.50;;;;;;6306990;22;20422;-73
2022/11/03 06:08:09;;;;;;;4.65;2.50;;;11.00;68.60;;;;;;6306958;22;20011;-72
2022/11/03 06:10:40;;;;;;;9.88;2.65;;;11.00;68.60;;;;;;6307268;22;20438;-72
2022/11/03 06:13:25;;;;;;;5.47;2.72;;;11.00;68.60;;;;;;6307017;22;20496;-72
2022/11/03 06:15:58;;;;;;;4.97;2.13;;;11.00;68.90;;;;;;6307103;22;20003;-72
2022/11/03 06:18:31;;;;;;;8.43;2.88;;;11.00;68.80;;;;;;6306750;22;20406;-72
2022/11/03 06:21:22;;;;;;;2.97;2.00;;;11.00;68.80;;;;;;6279795;22;20006;-72
2022/11/03 06:23:47;;;;;;;5.25;2.03;;;11.00;68.90;;;;;;6288891;22;20068;-72
2022/11/03 06:26:22;;;;;;;4.40;2.22;;;11.00;68.80;;;;;;6306896;22;20004;-72
2022/11/03 06:28:48;;;;;;;5.03;2.40;;;11.00;69.00;;;;;;6307026;22;20006;-72
2022/11/03 06:31:26;;;;;;;5.05;2.78;;;11.00;69.00;;;;;;6306907;22;20008;-72
2022/11/03 06:33:52;;;;;;;5.80;2.80;;;11.00;69.20;;;;;;6306859;22;20003;-72
2022/11/03 06:36:22;;;;;;;3.08;1.98;;;11.10;69.20;;;;;;6307015;22;19999;-72
2022/11/03 06:38:57;;;;;;;3.08;2.22;;;11.10;69.30;;;;;;6306906;22;20005;-72
2022/11/03 06:41:26;;;;;;;5.70;2.78;;;11.10;69.40;;;;;;6307063;22;20006;-72
2022/11/03 06:43:52;;;;;;;6.10;2.70;;;11.10;69.40;;;;;;6279671;22;20096;-72
2022/11/03 06:46:23;;;;;;;5.18;2.60;;;11.20;69.60;;;;;;6307000;22;20066;-72
2022/11/03 06:48:51;;;;;;;7.85;3.00;;;11.20;69.70;;;;;;6279357;22;20008;-72
2022/11/03 06:51:23;;;;;;;7.53;3.20;;;11.30;69.90;;;;;;6306856;22;20330;-72
2022/11/03 06:53:51;;;;;;;6.70;3.47;;;11.40;70.00;;;;;;6306683;22;20426;-72
2022/11/03 06:56:27;;;;;;;6.60;2.95;;;11.40;70.30;;;;;;6306931;22;20003;-72
2022/11/03 06:58:55;;;;;;;5.22;3.10;;;11.50;70.00;;;;;;6306930;22;20053;-72
2022/11/03 07:01:29;;;;;;;5.05;3.00;;;11.50;70.00;;;;;;6279430;22;20073;-72
2022/11/03 07:04:21;;;;;;;12.15;2.90;;;11.60;70.00;;;;;;6307007;22;20006;-72
2022/11/03 07:06:47;;;;;;;5.72;2.70;;;11.70;69.90;;;;;;6279520;22;20006;-72
2022/11/03 07:09:21;;;;;;;9.32;3.17;;;11.80;69.80;;;;;;6305708;22;20450;-72
2022/11/03 07:11:54;;;;;;;12.25;2.90;;;11.80;69.80;;;;;;6278494;22;20100;-72
2022/11/03 07:14:32;;;;;;;5.78;2.67;;;11.90;69.80;;;;;;6278479;22;20007;-72
2022/11/03 07:17:04;;;;;;;13.70;3.05;;;12.00;69.70;;;;;;6305578;22;20019;-72
2022/11/03 07:19:39;;;;;;;5.32;2.63;;;12.00;69.60;;;;;;6278315;22;20011;-72
2022/11/03 07:22:21;;;;;;;5.63;2.80;;;12.10;69.60;;;;;;6305672;22;20079;-72
2022/11/03 07:24:51;;;;;;;4.35;2.50;;;12.10;69.40;;;;;;6305631;22;19999;-72
2022/11/03 07:27:31;;;;;;;6.63;2.70;;;12.20;69.40;;;;;;6279409;22;20003;-73
2022/11/03 07:30:19;;;;;;;4.60;2.90;;;12.30;69.30;;;;;;6280002;22;20381;-73
2022/11/03 07:32:46;;;;;;;6.47;2.85;;;12.40;69.20;;;;;;6306684;22;20496;-72
2022/11/03 07:35:21;;;;;;;5.65;3.30;;;12.40;69.00;;;;;;6307162;22;20002;-72
2022/11/03 07:37:50;;;;;;;10.27;3.35;;;12.50;68.80;;;;;;6307736;22;19999;-75
2022/11/03 07:40:22;;;;;;;8.27;3.28;;;12.50;68.60;;;;;;6281450;22;20085;-73
2022/11/03 07:42:49;;;;;;;8.70;3.25;;;12.60;68.50;;;;;;6308894;22;19995;-73
2022/11/03 07:45:45;;;;;;;19.02;3.20;;;12.60;68.30;;;;;;6308774;22;20010;-73
2022/11/03 07:48:36;;;;;;;7.35;2.80;;;12.70;68.20;;;;;;6308243;22;20003;-73
2022/11/03 07:51:31;;;;;;;9.40;3.28;;;12.80;68.10;;;;;;6280960;22;20030;-73
2022/11/03 07:54:20;;;;;;;7.32;3.20;;;12.80;67.90;;;;;;6307468;22;20003;-73
2022/11/03 07:56:54;;;;;;;4.65;2.45;;;12.90;67.80;;;;;;6308754;22;19999;-73
2022/11/03 07:59:28;;;;;;;7.07;3.50;;;13.00;67.80;;;;;;6281319;22;20469;-73
2022/11/03 08:01:55;;;;;;;5.63;3.38;;;13.00;67.30;;;;;;6308463;22;20006;-73
2022/11/03 08:04:30;;;;;;;6.05;2.80;;;13.10;67.40;;;;;;6308583;22;19999;-73
2022/11/03 08:06:56;;;;;;;4.90;3.28;;;13.10;67.10;;;;;;6307899;22;20007;-73
2022/11/03 08:09:21;;;;;;;10.82;3.33;;;13.20;67.20;;;;;;6308470;22;20006;-73
2022/11/03 08:11:48;;;;;;;6.35;3.17;;;13.30;66.80;;;;;;6308348;22;20003;-73
2022/11/03 08:14:14;;;;;;;5.90;2.97;;;13.30;66.50;;;;;;6281093;22;20007;-73
2022/11/03 08:16:39;;;;;;;11.10;3.35;;;13.40;66.40;;;;;;6307258;22;20462;-72
2022/11/03 08:19:06;;;;;;;9.95;3.58;;;13.50;66.40;;;;;;6307927;22;20001;-72
2022/11/03 08:21:32;;;;;;;15.18;3.17;;;13.50;66.20;;;;;;6308111;22;19995;-72
2022/11/03 08:23:58;;;;;;;9.60;3.40;;;13.60;65.90;;;;;;6280670;22;20078;-74
2022/11/03 08:26:24;;;;;;;6.90;3.28;;;13.70;66.00;;;;;;6307796;22;20022;-72
2022/11/03 08:28:51;;;;;;;11.32;3.13;;;13.80;65.80;;;;;;6280578;22;20337;-74
2022/11/03 08:31:17;;;;;;;5.47;2.88;;;13.90;65.60;;;;;;6307987;22;20384;-72
2022/11/03 08:33:42;;;;;;;6.57;2.80;;;13.90;65.20;;;;;;6280752;22;20007;-72
2022/11/03 08:36:09;;;;;;;17.25;3.53;;;14.00;64.90;;;;;;6308129;22;19999;-72
2022/11/03 08:38:35;;;;;;;8.35;3.40;;;14.00;64.40;;;;;;6307391;22;20011;-72
2022/11/03 08:41:01;;;;;;;7.55;2.95;;;14.10;64.30;;;;;;6307167;22;20019;-73
2022/11/03 08:43:27;;;;;;;8.32;3.10;;;14.20;64.30;;;;;;6280536;22;20003;-73
2022/11/03 08:45:53;;;;;;;8.18;3.05;;;14.20;64.20;;;;;;6307912;22;20018;-74
2022/11/03 08:48:26;;;;;;;7.35;3.22;;;14.30;63.90;;;;;;6280059;22;20068;-73
2022/11/03 08:50:55;;;;;;;9.88;3.08;;;14.30;63.60;;;;;;6308030;22;20000;-73
2022/11/03 08:53:22;;;;;;;12.02;3.13;;;14.40;63.70;;;;;;6307654;22;20007;-74
2022/11/03 08:55:48;;;;;;;8.82;3.25;;;14.50;64.20;;;;;;6308125;22;19999;-73
2022/11/03 08:58:14;;;;;;;6.60;2.58;;;14.60;63.30;;;;;;6308017;22;20342;-73
2022/11/03 09:00:40;;;;;;;7.20;2.92;;;14.60;63.10;;;;;;6308045;22;19995;-73
2022/11/03 09:03:06;;;;;;;7.68;3.00;;;14.70;63.00;;;;;;6308043;22;20004;-73
2022/11/03 09:05:32;;;;;;;7.55;2.80;;;14.80;62.60;;;;;;6307793;22;20023;-73
2022/11/03 09:07:58;;;;;;;10.25;2.83;;;14.90;62.40;;;;;;6307643;22;20003;-73
2022/11/03 09:10:25;;;;;;;6.03;3.00;;;14.90;62.10;;;;;;6307779;22;20008;-73
2022/11/03 09:12:51;;;;;;;9.85;4.03;;;15.00;61.80;;;;;;6307821;22;19999;-73
2022/11/03 09:15:17;;;;;;;6.65;2.90;;;15.10;61.40;;;;;;6307607;22;20004;-73
2022/11/03 09:17:43;;;;;;;6.03;2.72;;;15.20;61.30;;;;;;6279787;22;20015;-73
2022/11/03 09:20:09;;;;;;;5.88;2.67;;;15.30;61.40;;;;;;6280097;22;20371;-73
2022/11/03 09:22:35;;;;;;;6.05;3.33;;;15.30;61.40;;;;;;6307644;22;20303;-71
2022/11/03 09:25:01;;;;;;;13.68;3.33;;;15.40;60.80;;;;;;6280258;22;20007;-71
2022/11/03 09:27:27;;;;;;;9.27;3.28;;;15.50;60.60;;;;;;6307520;22;20337;-72
2022/11/03 09:29:53;;;;;;;11.55;3.35;;;15.50;60.50;;;;;;6307327;22;20144;-74
2022/11/03 09:32:19;;;;;;;14.18;3.60;;;15.60;60.20;;;;;;6307319;22;20004;-74
2022/11/03 09:34:44;;;;;;;12.18;3.20;;;15.70;59.80;;;;;;6307583;22;20007;-74
2022/11/03 09:37:10;;;;;;;6.70;3.05;;;15.70;59.50;;;;;;6307432;22;20000;-74
2022/11/03 09:39:36;;;;;;;21.58;4.88;;;15.70;59.70;;;;;;6280192;22;20003;-73
2022/11/03 09:42:03;;;;;;;15.38;5.65;;;15.80;59.50;;;;;;6307425;22;20053;-73
2022/11/03 09:44:33;;;;;;;14.25;4.30;;;15.80;59.70;;;;;;6307317;22;19999;-73
2022/11/03 09:46:59;;;;;;;14.27;4.10;;;15.90;59.80;;;;;;6307467;22;20116;-73
2022/11/03 09:49:28;;;;;;;7.72;3.38;;;16.00;59.60;;;;;;6307222;22;20003;-73
2022/11/03 09:51:54;;;;;;;16.80;4.00;;;16.00;59.70;;;;;;6307268;22;20105;-73
2022/11/03 09:54:20;;;;;;;11.88;3.72;;;16.10;59.40;;;;;;6307169;22;20070;-73
2022/11/03 09:56:46;;;;;;;9.50;3.13;;;16.20;59.40;;;;;;6279843;22;20004;-73
2022/11/03 09:59:22;;;;;;;6.30;2.95;;;16.30;59.10;;;;;;6307139;22;20078;-72
2022/11/03 10:01:52;;;;;;;7.82;2.78;;;16.30;58.90;;;;;;6307335;22;20026;-73
2022/11/03 10:04:28;;;;;;;4.97;2.45;;;16.40;58.90;;;;;;6307302;22;20330;-73
2022/11/03 10:06:58;;;;;;;7.10;2.67;;;16.50;58.70;;;;;;6307427;22;20074;-73
2022/11/03 10:09:25;;;;;;;7.45;3.05;;;16.50;58.50;;;;;;6307334;22;19999;-73
2022/11/03 10:11:52;;;;;;;6.40;2.65;;;16.60;58.60;;;;;;6307484;22;20338;-73
2022/11/03 10:14:20;;;;;;;6.45;3.03;;;16.60;58.60;;;;;;6307343;22;20010;-73
2022/11/03 10:16:59;;;;;;;7.28;2.55;;;16.70;58.00;;;;;;6307250;22;20069;-73
2022/11/03 10:19:25;;;;;;;9.20;3.17;;;16.80;58.20;;;;;;6307163;22;20003;-73
2022/11/03 10:21:51;;;;;;;8.75;3.40;;;16.90;58.10;;;;;;6307009;22;19996;-73
2022/11/03 10:24:17;;;;;;;8.13;3.05;;;16.90;58.20;;;;;;6279770;22;20052;-73
2022/11/03 10:26:51;;;;;;;7.68;2.50;;;17.00;57.90;;;;;;6307109;22;19995;-73
2022/11/03 10:29:20;;;;;;;8.82;3.08;;;17.10;57.80;;;;;;6279484;22;20447;-73
2022/11/03 10:31:50;;;;;;;7.38;2.65;;;17.20;58.00;;;;;;6307128;22;20373;-73
2022/11/03 10:34:25;;;;;;;8.70;3.30;;;17.30;57.90;;;;;;6280057;22;20011;-73
2022/11/03 10:37:21;;;;;;;5.43;2.40;;;17.30;57.90;;;;;;6306945;22;20011;-73
2022/11/03 10:39:49;;;;;;;11.75;2.80;;;17.40;57.90;;;;;;6307348;22;20078;-73
2022/11/03 10:42:20;;;;;;;7.68;2.83;;;17.50;57.90;;;;;;6279935;22;20090;-72
2022/11/03 10:44:49;;;;;;;9.30;2.78;;;17.60;57.60;;;;;;6307308;22;20003;-73
2022/11/03 10:47:22;;;;;;;10.48;3.40;;;17.60;57.50;;;;;;6307073;22;20006;-73
2022/11/03 10:49:48;;;;;;;9.20;4.25;;;17.70;57.50;;;;;;6307293;22;20023;-73
2022/11/03 10:52:19;;;;;;;12.00;3.53;;;17.70;57.10;;;;;;6307334;22;20002;-73
2022/11/03 10:54:46;;;;;;;8.80;3.42;;;17.80;57.10;;;;;;6307208;22;20079;-73
2022/11/03 10:57:14;;;;;;;12.82;4.10;;;17.80;56.90;;;;;;6306474;22;20350;-73
2022/11/03 10:59:41;;;;;;;10.93;3.67;;;17.90;56.70;;;;;;6306654;22;20004;-73
2022/11/03 11:02:25;;;;;;;12.60;3.60;;;17.90;56.70;;;;;;6307964;22;20056;-73
2022/11/03 11:05:00;;;;;;;6.35;3.50;;;18.00;56.70;;;;;;6308938;22;20071;-73
2022/11/03 11:07:35;;;;;;;11.68;3.63;;;18.10;56.50;;;;;;6309277;22;20045;-73
2022/11/03 11:10:28;;;;;;;12.57;4.10;;;18.10;56.10;;;;;;6281931;22;20334;-73
2022/11/03 11:13:22;;;;;;;10.23;4.90;;;18.20;56.10;;;;;;6303646;22;20007;-73
2022/11/03 11:16:01;;;;;;;11.25;3.83;;;18.20;55.50;;;;;;6309296;22;19996;-73
2022/11/03 11:18:29;;;;;;;15.60;4.40;;;18.30;55.70;;;;;;6308754;22;20033;-73
2022/11/03 11:21:00;;;;;;;10.23;3.92;;;18.40;55.40;;;;;;6278842;22;20374;-73
2022/11/03 11:23:28;;;;;;;9.45;3.97;;;18.40;55.90;;;;;;6308600;22;19999;-73
2022/11/03 11:26:09;;;;;;;8.18;3.58;;;18.50;55.30;;;;;;6308377;22;20003;-73
2022/11/03 11:28:39;;;;;;;11.70;4.63;;;18.50;55.60;;;;;;6308208;22;20007;-73
2022/11/03 11:31:28;;;;;;;8.63;4.20;;;18.60;55.70;;;;;;6308048;22;20014;-73
2022/11/03 11:34:24;;;;;;;15.45;4.07;;;18.60;55.40;;;;;;6280998;22;20014;-73
2022/11/03 11:36:53;;;;;;;14.43;3.75;;;18.60;55.30;;;;;;6276746;22;20007;-73
2022/11/03 11:39:22;;;;;;;11.32;4.95;;;18.70;55.30;;;;;;6280449;22;20003;-73
2022/11/03 11:42:12;;;;;;;10.60;4.15;;;18.80;55.20;;;;;;6308394;22;20492;-73
2022/11/03 11:44:56;;;;;;;10.23;4.28;;;18.80;55.00;;;;;;6308469;22;20371;-73
2022/11/03 11:47:39;;;;;;;7.25;3.45;;;18.90;55.10;;;;;;6308381;22;20434;-73
2022/11/03 11:50:05;;;;;;;6.38;3.95;;;18.90;55.30;;;;;;6308260;22;20003;-73
2022/11/03 11:52:40;;;;;;;6.45;3.35;;;19.00;55.40;;;;;;6308356;22;20390;-73
2022/11/03 11:55:36;;;;;;;8.23;3.55;;;19.00;55.00;;;;;;6280883;22;20003;-73
2022/11/03 11:58:04;;;;;;;8.40;3.00;;;19.10;54.40;;;;;;6282711;22;20006;-73
2022/11/03 12:00:33;;;;;;;9.73;3.50;;;19.20;54.40;;;;;;6308286;22;20021;-73
2022/11/03 12:03:01;;;;;;;9.77;3.65;;;19.20;54.60;;;;;;6308409;22;20407;-73
2022/11/03 12:05:30;;;;;;;9.07;3.70;;;19.20;54.70;;;;;;6308178;22;20019;-73
2022/11/03 12:07:56;;;;;;;6.85;3.08;;;19.20;54.80;;;;;;6307994;22;20007;-72
2022/11/03 12:10:25;;;;;;;5.22;2.38;;;19.30;54.80;;;;;;6307357;22;20026;-72
2022/11/03 12:12:51;;;;;;;5.72;2.60;;;19.30;54.70;;;;;;6307290;22;20075;-73
2022/11/03 12:15:55;;;;;;;7.78;2.67;;;19.30;54.60;;;;;;6308214;22;19999;-72
2022/11/03 12:18:32;;;;;;;5.63;2.88;;;19.30;54.60;;;;;;6306955;22;20015;-73
2022/11/03 12:20:58;;;;;;;9.52;4.53;;;19.40;54.40;;;;;;6307957;22;20022;-72
2022/11/03 12:23:34;;;;;;;10.73;3.03;;;19.50;54.40;;;;;;6307714;22;20053;-72
2022/11/03 12:26:00;;;;;;;6.57;2.75;;;19.50;54.00;;;;;;6308179;22;19995;-73
2022/11/03 12:28:33;;;;;;;10.80;3.28;;;19.50;53.50;;;;;;6307741;22;19999;-72
2022/11/03 12:30:59;;;;;;;6.43;2.78;;;19.50;53.80;;;;;;6308669;22;20023;-72
2022/11/03 12:33:26;;;;;;;7.25;2.17;;;19.60;54.00;;;;;;6280924;22;20422;-72
2022/11/03 12:35:52;;;;;;;9.10;2.90;;;19.60;53.60;;;;;;6306946;22;20046;-73
2022/11/03 12:38:18;;;;;;;7.18;2.67;;;19.60;54.00;;;;;;6307581;22;20414;-73
2022/11/03 12:40:44;;;;;;;5.22;2.17;;;19.60;54.20;;;;;;6307581;22;20516;-72
2022/11/03 12:43:10;;;;;;;8.38;3.40;;;19.70;54.20;;;;;;6280531;22;19999;-73
2022/11/03 12:45:35;;;;;;;11.48;2.78;;;19.70;54.30;;;;;;6307019;22;20393;-73
2022/11/03 12:48:01;;;;;;;9.57;3.25;;;19.70;54.30;;;;;;6307201;22;20384;-73
2022/11/03 12:50:27;;;;;;;8.07;2.97;;;19.80;54.50;;;;;;6307182;22;19999;-72
2022/11/03 12:52:53;;;;;;;5.68;2.40;;;19.70;54.10;;;;;;6307473;22;20003;-72
2022/11/03 12:55:19;;;;;;;7.68;2.90;;;19.80;54.10;;;;;;6279755;22;20286;-72
2022/11/03 12:57:45;;;;;;;7.05;2.72;;;19.80;54.20;;;;;;6307243;22;20010;-72
2022/11/03 13:00:11;;;;;;;12.35;3.55;;;19.80;54.40;;;;;;6307146;22;20003;-72
2022/11/03 13:02:37;;;;;;;6.82;2.45;;;19.80;54.30;;;;;;6307767;22;19995;-71
2022/11/03 13:05:04;;;;;;;5.32;2.22;;;19.80;53.80;;;;;;6307371;22;20003;-72
2022/11/03 13:07:30;;;;;;;4.50;2.30;;;19.90;53.50;;;;;;6307685;22;19995;-72
2022/11/03 13:09:56;;;;;;;7.95;3.20;;;19.90;53.90;;;;;;6307647;22;20006;-72
2022/11/03 13:12:31;;;;;;;6.70;2.72;;;19.90;54.10;;;;;;6307414;22;20058;-72
2022/11/03 13:14:58;;;;;;;6.30;2.55;;;20.00;54.20;;;;;;6306916;22;19995;-71
2022/11/03 13:17:24;;;;;;;8.32;3.20;;;20.00;54.10;;;;;;6307245;22;20011;-72
2022/11/03 13:19:50;;;;;;;21.20;4.20;;;20.00;54.10;;;;;;6307557;22;20070;-71
2022/11/03 13:22:16;;;;;;;5.03;2.03;;;20.00;53.70;;;;;;6307337;22;20023;-71
2022/11/03 13:24:42;;;;;;;8.85;2.53;;;20.10;53.80;;;;;;6279490;22;19999;-72
2022/11/03 13:27:08;;;;;;;9.93;2.65;;;20.10;54.00;;;;;;6307247;22;20430;-72
2022/11/03 13:29:33;;;;;;;8.57;3.00;;;20.10;54.10;;;;;;6307080;22;20112;-72